createdAt,value
2022-10-20T00:00:17.969Z,6.90
2022-10-20T00:07:51.800Z,7.40
2022-10-20T00:10:22.095Z,5.80
2022-10-20T00:12:52.808Z,7.10
2022-10-20T00:22:47.890Z,8.30
2022-10-20T00:30:13.808Z,7.50
2022-10-20T00:35:09.187Z,7.10
2022-10-20T00:40:11.305Z,7.00
2022-10-20T00:45:13.826Z,7.00
2022-10-20T00:47:53.328Z,7.30
2022-10-20T00:50:42.868Z,7.00
2022-10-20T00:53:11.670Z,7.00
2022-10-20T00:55:42.652Z,6.90
2022-10-20T01:00:44.534Z,6.90
2022-10-20T01:03:20.793Z,6.80
2022-10-20T01:05:48.294Z,8.20
2022-10-20T01:11:05.628Z,6.80
2022-10-20T01:13:44.431Z,6.80
2022-10-20T01:16:30.124Z,6.80
2022-10-20T01:19:13.088Z,6.70
2022-10-20T01:22:11.974Z,6.70
2022-10-20T01:27:34.193Z,6.70
2022-10-20T01:30:20.024Z,6.70
2022-10-20T01:38:17.159Z,6.60
2022-10-20T01:41:03.150Z,6.50
2022-10-20T01:43:35.794Z,6.50
2022-10-20T01:46:07.274Z,6.50
2022-10-20T01:48:38.986Z,6.90
2022-10-20T01:51:09.420Z,6.50
2022-10-20T01:56:19.015Z,6.40
2022-10-20T01:59:01.561Z,7.50
2022-10-20T02:01:57.385Z,6.40
2022-10-20T02:04:47.810Z,6.40
2022-10-20T02:07:25.111Z,6.40
2022-10-20T02:09:56.368Z,6.40
2022-10-20T02:12:29.468Z,6.40
2022-10-20T02:17:24.939Z,5.00
2022-10-20T02:19:53.819Z,4.80
2022-10-20T02:22:27.855Z,6.40
2022-10-20T02:24:58.883Z,7.30
2022-10-20T02:27:32.723Z,6.40
2022-10-20T02:30:05.378Z,6.40
2022-10-20T02:32:34.274Z,6.30
2022-10-20T02:35:07.892Z,6.30
2022-10-20T02:40:08.389Z,6.30
2022-10-20T02:47:35.582Z,6.30
2022-10-20T02:50:07.720Z,6.20
2022-10-20T03:02:32.563Z,6.10
2022-10-20T03:09:58.493Z,6.10
2022-10-20T03:14:59.015Z,6.40
2022-10-20T03:24:49.426Z,6.50
2022-10-20T03:27:19.608Z,6.10
2022-10-20T03:29:46.695Z,6.90
2022-10-20T03:32:14.787Z,6.10
2022-10-20T03:34:45.027Z,5.70
2022-10-20T03:37:12.460Z,7.80
2022-10-20T03:47:11.693Z,5.90
2022-10-20T03:49:39.316Z,6.40
2022-10-20T03:54:36.511Z,5.70
2022-10-20T03:59:37.914Z,5.80
2022-10-20T04:12:01.224Z,5.80
2022-10-20T04:21:59.371Z,6.30
2022-10-20T04:39:44.080Z,5.70
2022-10-20T05:04:26.099Z,5.00
2022-10-20T05:06:53.325Z,5.70
2022-10-20T05:26:53.546Z,5.60
2022-10-20T05:34:21.370Z,5.50
2022-10-20T05:36:48.469Z,6.40
2022-10-20T05:41:50.981Z,5.50
2022-10-20T05:46:51.965Z,4.60
2022-10-20T06:01:52.911Z,5.60
2022-10-20T06:04:28.128Z,5.60
2022-10-20T06:07:01.673Z,5.60
2022-10-20T06:19:25.485Z,5.60
2022-10-20T06:26:53.253Z,5.70
2022-10-20T06:32:01.444Z,5.70
2022-10-20T06:36:59.630Z,5.80
2022-10-20T06:44:25.245Z,5.90
2022-10-20T06:49:27.677Z,5.90
2022-10-20T06:51:54.886Z,6.60
2022-10-20T06:59:20.588Z,6.10
2022-10-20T07:01:48.902Z,7.50
2022-10-20T07:06:46.790Z,6.40
2022-10-20T07:09:24.619Z,6.40
2022-10-20T07:11:55.526Z,6.50
2022-10-20T07:14:39.514Z,6.60
2022-10-20T07:22:11.518Z,7.90
2022-10-20T07:29:42.486Z,7.00
2022-10-20T07:32:12.561Z,7.00
2022-10-20T07:42:08.547Z,7.40
2022-10-20T07:44:37.075Z,7.50
2022-10-20T07:47:04.327Z,8.10
2022-10-20T07:49:49.713Z,7.50
2022-10-20T07:52:27.290Z,7.60
2022-10-20T07:55:17.358Z,7.70
2022-10-20T07:57:52.111Z,6.50
2022-10-20T08:00:23.345Z,7.80
2022-10-20T08:02:57.115Z,7.90
2022-10-20T08:08:02.931Z,8.20
2022-10-20T08:10:31.202Z,8.00
2022-10-20T08:13:03.931Z,10.10
2022-10-20T08:15:37.540Z,11.30
2022-10-20T08:18:08.293Z,8.40
2022-10-20T08:26:00.090Z,8.60
2022-10-20T08:33:24.095Z,9.10
2022-10-20T08:38:22.715Z,9.20
2022-10-20T08:40:50.030Z,10.00
2022-10-20T08:43:19.968Z,9.50
2022-10-20T08:45:48.727Z,10.80
2022-10-20T08:48:29.608Z,10.70
2022-10-20T08:51:01.448Z,8.80
2022-10-20T08:53:40.095Z,11.20
2022-10-20T08:56:33.787Z,9.80
2022-10-20T08:59:03.771Z,9.90
2022-10-20T09:01:40.013Z,10.20
2022-10-20T09:04:30.179Z,10.10
2022-10-20T09:07:01.915Z,9.70
2022-10-20T09:09:35.553Z,11.50
2022-10-20T09:12:13.541Z,10.60
2022-10-20T09:14:44.352Z,10.10
2022-10-20T09:17:26.160Z,11.50
2022-10-20T09:20:01.774Z,11.20
2022-10-20T09:22:36.169Z,11.30
2022-10-20T09:25:09.760Z,11.80
2022-10-20T09:30:23.339Z,12.30
2022-10-20T09:32:54.377Z,12.40
2022-10-20T09:35:32.381Z,12.50
2022-10-20T09:38:19.419Z,13.20
2022-10-20T09:41:09.687Z,13.30
2022-10-20T09:43:53.170Z,13.50
2022-10-20T09:46:35.966Z,14.60
2022-10-20T09:49:06.154Z,15.60
2022-10-20T09:51:39.024Z,14.30
2022-10-20T09:54:19.905Z,14.50
2022-10-20T09:56:49.441Z,15.80
2022-10-20T09:59:21.719Z,15.00
2022-10-20T10:01:57.882Z,15.10
2022-10-20T10:04:40.108Z,15.80
2022-10-20T10:07:29.801Z,16.80
2022-10-20T10:09:58.943Z,16.20
2022-10-20T10:12:40.203Z,15.30
2022-10-20T10:15:26.206Z,15.40
2022-10-20T10:17:57.328Z,15.60
2022-10-20T10:20:39.691Z,15.80
2022-10-20T10:23:21.102Z,15.80
2022-10-20T10:26:03.164Z,16.30
2022-10-20T10:29:02.260Z,16.60
2022-10-20T10:31:36.993Z,17.10
2022-10-20T10:34:16.992Z,17.60
2022-10-20T10:36:44.710Z,17.80
2022-10-20T10:39:21.777Z,17.90
2022-10-20T10:41:55.885Z,18.10
2022-10-20T10:44:53.305Z,18.40
2022-10-20T10:47:27.289Z,17.90
2022-10-20T10:50:37.597Z,18.90
2022-10-20T10:53:13.944Z,17.40
2022-10-20T10:56:28.038Z,17.20
2022-10-20T10:59:07.392Z,17.40
2022-10-20T11:01:58.548Z,18.10
2022-10-20T11:04:45.073Z,18.30
2022-10-20T11:07:35.950Z,18.80
2022-10-20T11:10:21.396Z,19.30
2022-10-20T11:13:26.231Z,19.60
2022-10-20T11:15:54.679Z,19.70
2022-10-20T11:18:57.336Z,19.70
2022-10-20T11:22:00.789Z,19.70
2022-10-20T11:24:43.085Z,19.90
2022-10-20T11:27:19.532Z,19.80
2022-10-20T11:30:02.848Z,20.50
2022-10-20T11:32:49.804Z,20.70
2022-10-20T11:35:21.438Z,18.90
2022-10-20T11:37:48.490Z,17.90
2022-10-20T11:40:22.204Z,18.80
2022-10-20T11:43:11.170Z,19.00
2022-10-20T11:46:08.596Z,18.30
2022-10-20T11:49:03.966Z,19.10
2022-10-20T11:51:49.166Z,18.90
2022-10-20T11:54:55.629Z,18.50
2022-10-20T11:58:05.568Z,18.40
2022-10-20T12:01:05.032Z,18.30
2022-10-20T12:04:07.498Z,18.20
2022-10-20T12:07:54.099Z,18.10
2022-10-20T12:10:44.819Z,17.80
2022-10-20T12:13:49.408Z,17.70
2022-10-20T12:17:16.493Z,17.80
2022-10-20T12:20:26.736Z,17.80
2022-10-20T12:23:02.550Z,18.00
2022-10-20T12:25:33.369Z,17.50
2022-10-20T12:28:28.955Z,16.90
2022-10-20T12:31:01.289Z,17.00
2022-10-20T12:34:11.190Z,18.70
2022-10-20T12:36:43.775Z,17.00
2022-10-20T12:39:32.261Z,17.50
2022-10-20T12:42:16.386Z,17.10
2022-10-20T12:44:50.534Z,16.90
2022-10-20T12:47:36.405Z,18.00
2022-10-20T12:50:20.738Z,17.70
2022-10-20T12:52:50.062Z,16.70
2022-10-20T12:55:27.570Z,16.50
2022-10-20T12:58:17.770Z,16.20
2022-10-20T13:00:48.038Z,15.90
2022-10-20T13:03:44.827Z,16.10
2022-10-20T13:06:25.920Z,15.80
2022-10-20T13:09:25.865Z,15.60
2022-10-20T13:12:03.855Z,15.40
2022-10-20T13:14:52.473Z,17.30
2022-10-20T13:17:25.098Z,15.30
2022-10-20T13:20:02.854Z,15.10
2022-10-20T13:22:56.394Z,15.00
2022-10-20T13:25:40.795Z,15.00
2022-10-20T13:28:15.928Z,14.90
2022-10-20T13:30:59.891Z,15.00
2022-10-20T13:34:06.646Z,16.10
2022-10-20T13:37:21.682Z,15.00
2022-10-20T13:40:25.535Z,14.80
2022-10-20T13:43:29.845Z,14.80
2022-10-20T13:46:26.799Z,14.70
2022-10-20T13:49:10.413Z,14.60
2022-10-20T13:52:08.290Z,14.60
2022-10-20T13:54:58.958Z,14.60
2022-10-20T14:00:04.572Z,14.00
2022-10-20T14:02:39.793Z,14.40
2022-10-20T14:05:15.454Z,14.30
2022-10-20T14:07:44.641Z,15.00
2022-10-20T14:10:48.539Z,14.20
2022-10-20T14:13:30.028Z,14.20
2022-10-20T14:16:00.806Z,14.20
2022-10-20T14:18:39.207Z,14.20
2022-10-20T14:21:15.906Z,14.20
2022-10-20T14:23:46.586Z,14.20
2022-10-20T14:26:21.655Z,14.20
2022-10-20T14:28:54.339Z,15.60
2022-10-20T14:31:24.470Z,14.00
2022-10-20T14:36:34.216Z,13.90
2022-10-20T14:39:04.295Z,13.80
2022-10-20T14:41:35.481Z,13.70
2022-10-20T14:44:14.751Z,13.70
2022-10-20T14:47:17.969Z,13.60
2022-10-20T14:49:52.609Z,12.70
2022-10-20T14:52:56.867Z,13.50
2022-10-20T14:55:36.291Z,13.40
2022-10-20T14:58:33.039Z,13.60
2022-10-20T15:01:19.903Z,13.40
2022-10-20T15:03:57.416Z,13.40
2022-10-20T15:09:05.174Z,13.70
2022-10-20T15:14:04.084Z,13.40
2022-10-20T15:16:49.411Z,13.60
2022-10-20T15:19:31.013Z,13.10
2022-10-20T15:22:18.854Z,13.10
2022-10-20T15:24:51.139Z,15.00
2022-10-20T15:27:24.103Z,13.00
2022-10-20T15:29:58.851Z,12.90
2022-10-20T15:34:58.645Z,12.80
2022-10-20T15:37:31.852Z,12.80
2022-10-20T15:40:07.369Z,12.80
2022-10-20T15:42:35.079Z,12.80
2022-10-20T15:45:09.727Z,17.80
2022-10-20T15:50:15.643Z,12.60
2022-10-20T15:52:50.477Z,12.50
2022-10-20T15:57:56.775Z,12.50
2022-10-20T16:00:31.963Z,12.30
2022-10-20T16:03:07.265Z,12.30
2022-10-20T16:15:46.531Z,12.20
2022-10-20T16:18:14.444Z,12.10
2022-10-20T16:23:15.199Z,11.90
2022-10-20T16:25:48.299Z,11.90
2022-10-20T16:28:18.831Z,11.90
2022-10-20T16:30:46.396Z,12.20
2022-10-20T16:33:14.049Z,11.90
2022-10-20T16:35:47.471Z,11.70
2022-10-20T16:38:15.012Z,11.70
2022-10-20T16:40:57.227Z,13.70
2022-10-20T16:48:22.265Z,11.70
2022-10-20T16:55:57.903Z,11.60
2022-10-20T16:58:26.796Z,11.60
2022-10-20T17:00:58.683Z,11.80
2022-10-20T17:06:02.519Z,11.70
2022-10-20T17:08:32.122Z,13.20
2022-10-20T17:11:02.193Z,11.70
2022-10-20T17:13:30.366Z,11.70
2022-10-20T17:16:06.405Z,13.50
2022-10-20T17:23:32.529Z,11.80
2022-10-20T17:26:02.392Z,11.80
2022-10-20T17:28:31.180Z,11.80
2022-10-20T17:31:02.183Z,11.80
2022-10-20T17:33:31.156Z,11.80
2022-10-20T17:36:04.053Z,13.70
2022-10-20T17:41:06.788Z,11.80
2022-10-20T17:46:04.541Z,11.80
2022-10-20T17:48:34.971Z,11.90
2022-10-20T17:51:10.812Z,11.90
2022-10-20T17:53:40.580Z,11.80
2022-10-20T17:56:21.863Z,11.90
2022-10-20T17:58:51.074Z,11.90
2022-10-20T18:01:32.814Z,11.90
2022-10-20T18:04:08.613Z,11.80
2022-10-20T18:09:15.780Z,12.40
2022-10-20T18:11:48.034Z,12.30
2022-10-20T18:14:17.188Z,13.00
2022-10-20T18:19:18.103Z,11.80
2022-10-20T18:26:48.984Z,11.80
2022-10-20T18:29:17.129Z,11.80
2022-10-20T18:31:48.049Z,10.70
2022-10-20T18:34:18.513Z,12.80
2022-10-20T18:44:17.087Z,11.90
2022-10-20T18:46:46.181Z,11.80
2022-10-20T18:49:20.531Z,11.80
2022-10-20T18:56:46.583Z,11.80
2022-10-20T18:59:16.499Z,11.80
2022-10-20T19:01:44.521Z,11.70
2022-10-20T19:04:13.213Z,11.80
2022-10-20T19:06:46.487Z,11.80
2022-10-20T19:09:20.022Z,11.70
2022-10-20T19:19:19.049Z,11.70
2022-10-20T19:21:46.963Z,12.30
2022-10-20T19:25:08.707Z,11.50
2022-10-20T19:27:35.970Z,12.60
2022-10-20T19:30:04.287Z,11.40
2022-10-20T19:32:42.934Z,11.20
2022-10-20T19:37:43.727Z,11.20
2022-10-20T19:45:13.132Z,11.00
2022-10-20T19:55:11.965Z,11.10
2022-10-20T19:57:41.448Z,11.00
2022-10-20T20:00:12.060Z,11.40
2022-10-20T20:02:41.702Z,10.90
2022-10-20T20:05:12.062Z,10.90
2022-10-20T20:12:41.088Z,10.80
2022-10-20T20:15:11.299Z,10.70
2022-10-20T20:17:55.658Z,11.40
2022-10-20T20:22:55.452Z,10.70
2022-10-20T20:27:53.852Z,11.70
2022-10-20T20:41:24.510Z,10.70
2022-10-20T20:43:56.618Z,10.00
2022-10-20T20:57:54.514Z,9.70
2022-10-20T21:26:28.357Z,10.10
2022-10-20T21:29:54.552Z,9.10
2022-10-20T22:06:14.668Z,10.60
2022-10-20T22:39:25.082Z,9.50
2022-10-20T22:44:35.865Z,9.50
2022-10-20T22:47:05.553Z,10.10
2022-10-20T22:49:33.181Z,8.70
2022-10-20T22:54:31.650Z,9.50
2022-10-20T22:57:15.464Z,9.50
2022-10-20T22:59:49.534Z,9.50
2022-10-20T23:03:01.234Z,9.50
2022-10-20T23:05:56.012Z,9.60
2022-10-20T23:11:18.935Z,9.50
2022-10-20T23:13:59.586Z,9.50
2022-10-20T23:19:15.021Z,9.50
2022-10-20T23:29:18.549Z,9.50
2022-10-20T23:32:10.869Z,9.50
2022-10-20T23:37:15.645Z,10.00
2022-10-20T23:45:02.209Z,9.50
2022-10-20T23:47:39.272Z,9.50
2022-10-20T23:52:51.097Z,9.50
